createdAt,value
2022-12-16T00:00:06.418Z,-5.60
2022-12-16T00:02:33.312Z,-5.82
2022-12-16T00:05:00.144Z,-5.60
2022-12-16T00:07:30.015Z,-5.48
2022-12-16T00:09:56.656Z,-5.67
2022-12-16T00:12:23.373Z,-5.76
2022-12-16T00:14:50.051Z,-5.70
2022-12-16T00:17:17.108Z,-5.75
2022-12-16T00:19:43.795Z,-5.91
2022-12-16T00:22:10.409Z,-6.12
2022-12-16T00:24:37.274Z,-5.87
2022-12-16T00:27:04.124Z,-6.13
2022-12-16T00:29:30.868Z,-6.18
2022-12-16T00:31:57.572Z,-6.00
2022-12-16T00:34:24.240Z,-5.91
2022-12-16T00:36:50.869Z,-5.88
2022-12-16T00:39:17.609Z,-5.65
2022-12-16T00:41:44.222Z,-5.63
2022-12-16T00:44:10.920Z,-5.66
2022-12-16T00:46:37.556Z,-5.90
2022-12-16T00:49:04.277Z,-5.77
2022-12-16T00:51:30.899Z,-5.93
2022-12-16T00:53:57.504Z,-6.00
2022-12-16T00:56:30.394Z,-6.12
2022-12-16T00:58:57.002Z,-6.16
2022-12-16T01:01:23.744Z,-6.17
2022-12-16T01:03:50.546Z,-6.33
2022-12-16T01:06:18.339Z,-6.15
2022-12-16T01:08:51.145Z,-6.31
2022-12-16T01:11:19.945Z,-6.41
2022-12-16T01:13:50.379Z,-6.49
2022-12-16T01:16:19.241Z,-6.40
2022-12-16T01:18:45.966Z,-6.33
2022-12-16T01:21:14.411Z,-6.20
2022-12-16T01:23:41.220Z,-5.97
2022-12-16T01:26:07.834Z,-5.96
2022-12-16T01:28:34.848Z,-6.17
2022-12-16T01:31:02.034Z,-6.33
2022-12-16T01:33:30.403Z,-6.26
2022-12-16T01:36:02.100Z,-6.30
2022-12-16T01:38:29.227Z,-6.25
2022-12-16T01:40:55.851Z,-6.10
2022-12-16T01:43:43.057Z,-6.29
2022-12-16T01:46:17.094Z,-6.40
2022-12-16T01:48:47.467Z,-6.38
2022-12-16T01:51:21.767Z,-6.27
2022-12-16T01:53:49.526Z,-6.29
2022-12-16T01:56:18.527Z,-6.17
2022-12-16T01:58:45.969Z,-6.37
2022-12-16T02:01:14.370Z,-6.38
2022-12-16T02:03:42.326Z,-6.24
2022-12-16T02:06:09.288Z,-6.16
2022-12-16T02:08:35.947Z,-6.22
2022-12-16T02:11:39.720Z,-6.44
2022-12-16T02:14:17.656Z,-6.56
2022-12-16T02:17:10.290Z,-6.46
2022-12-16T02:20:07.372Z,-6.54
2022-12-16T02:23:02.188Z,-6.49
2022-12-16T02:25:58.168Z,-6.50
2022-12-16T02:28:40.519Z,-6.82
2022-12-16T02:31:19.384Z,-6.56
2022-12-16T02:34:09.134Z,-6.22
2022-12-16T02:36:45.384Z,-6.56
2022-12-16T02:39:20.881Z,-6.65
2022-12-16T02:41:49.563Z,-6.66
2022-12-16T02:44:17.368Z,-6.82
2022-12-16T02:46:53.439Z,-6.57
2022-12-16T02:49:22.268Z,-6.45
2022-12-16T02:51:49.861Z,-6.43
2022-12-16T02:54:17.825Z,-6.43
2022-12-16T02:57:16.904Z,-6.41
2022-12-16T03:00:01.730Z,-6.58
2022-12-16T03:02:42.215Z,-6.35
2022-12-16T03:05:16.042Z,-6.35
2022-12-16T03:07:44.327Z,-6.41
2022-12-16T03:10:15.413Z,-6.61
2022-12-16T03:12:44.440Z,-6.46
2022-12-16T03:15:14.010Z,-6.55
2022-12-16T03:17:41.323Z,-6.52
2022-12-16T03:20:12.385Z,-6.69
2022-12-16T03:22:42.270Z,-6.65
2022-12-16T03:25:09.540Z,-6.65
2022-12-16T03:27:46.644Z,-6.58
2022-12-16T03:30:16.605Z,-6.75
2022-12-16T03:32:51.501Z,-6.84
2022-12-16T03:35:26.000Z,-6.85
2022-12-16T03:37:55.490Z,-6.82
2022-12-16T03:40:22.907Z,-6.67
2022-12-16T03:42:49.950Z,-6.75
2022-12-16T03:45:21.239Z,-6.76
2022-12-16T03:47:51.763Z,-6.47
2022-12-16T03:50:20.247Z,-6.58
2022-12-16T03:52:46.916Z,-6.64
2022-12-16T03:55:13.564Z,-6.95
2022-12-16T03:57:40.229Z,-6.52
2022-12-16T04:00:07.831Z,-6.66
2022-12-16T04:02:38.756Z,-6.62
2022-12-16T04:05:05.828Z,-6.44
2022-12-16T04:07:32.462Z,-6.56
2022-12-16T04:09:59.613Z,-6.64
2022-12-16T04:12:44.933Z,-6.78
2022-12-16T04:15:30.323Z,-7.03
2022-12-16T04:18:15.580Z,-6.88
2022-12-16T04:21:07.073Z,-6.86
2022-12-16T04:23:53.842Z,-6.79
2022-12-16T04:26:21.057Z,-6.70
2022-12-16T04:28:47.789Z,-6.50
2022-12-16T04:31:14.505Z,-6.41
2022-12-16T04:33:59.807Z,-6.48
2022-12-16T04:36:45.063Z,-6.75
2022-12-16T04:39:30.346Z,-6.56
2022-12-16T04:42:15.697Z,-6.62
2022-12-16T04:45:00.974Z,-6.85
2022-12-16T04:47:46.407Z,-6.76
2022-12-16T04:50:31.761Z,-6.57
2022-12-16T04:53:17.063Z,-6.50
2022-12-16T04:56:04.391Z,-6.65
2022-12-16T04:58:50.186Z,-7.10
2022-12-16T05:01:35.504Z,-6.85
2022-12-16T05:04:21.239Z,-6.84
2022-12-16T05:07:06.399Z,-6.91
2022-12-16T05:09:51.751Z,-7.10
2022-12-16T05:12:36.993Z,-7.15
2022-12-16T05:15:22.254Z,-7.27
2022-12-16T05:18:07.607Z,-7.30
2022-12-16T05:20:52.944Z,-7.23
2022-12-16T05:23:40.692Z,-7.30
2022-12-16T05:26:26.010Z,-7.11
2022-12-16T05:29:11.259Z,-7.07
2022-12-16T05:31:57.144Z,-6.93
2022-12-16T05:34:42.451Z,-6.88
2022-12-16T05:37:28.126Z,-7.10
2022-12-16T05:40:13.669Z,-7.12
2022-12-16T05:42:59.053Z,-6.85
2022-12-16T05:45:44.507Z,-7.00
2022-12-16T05:48:29.750Z,-6.98
2022-12-16T05:51:14.975Z,-7.03
2022-12-16T05:54:00.271Z,-7.25
2022-12-16T05:56:45.577Z,-7.24
2022-12-16T05:59:30.983Z,-7.01
2022-12-16T06:02:16.226Z,-6.82
2022-12-16T06:05:01.674Z,-7.09
2022-12-16T06:07:46.855Z,-7.05
2022-12-16T06:10:32.225Z,-7.10
2022-12-16T06:13:17.428Z,-7.11
2022-12-16T06:16:08.905Z,-7.28
2022-12-16T06:18:54.756Z,-7.08
2022-12-16T06:21:40.559Z,-7.08
2022-12-16T06:24:25.817Z,-7.37
2022-12-16T06:27:11.125Z,-7.32
2022-12-16T06:29:56.371Z,-7.31
2022-12-16T06:32:41.740Z,-7.29
2022-12-16T06:35:27.089Z,-7.03
2022-12-16T06:38:12.522Z,-6.90
2022-12-16T06:40:57.650Z,-7.09
2022-12-16T06:43:42.936Z,-7.07
2022-12-16T06:46:35.848Z,-6.92
2022-12-16T06:49:21.186Z,-7.01
2022-12-16T06:52:06.602Z,-7.18
2022-12-16T06:54:51.971Z,-6.81
2022-12-16T06:57:37.363Z,-7.31
2022-12-16T07:00:23.046Z,-7.20
2022-12-16T07:03:08.572Z,-7.11
2022-12-16T07:05:53.926Z,-7.16
2022-12-16T07:08:39.170Z,-6.96
2022-12-16T07:11:24.537Z,-7.01
2022-12-16T07:14:09.766Z,-6.98
2022-12-16T07:16:55.158Z,-7.11
2022-12-16T07:19:40.650Z,-7.36
2022-12-16T07:22:27.008Z,-7.38
2022-12-16T07:25:12.422Z,-7.21
2022-12-16T07:27:57.656Z,-7.07
2022-12-16T07:30:43.148Z,-7.13
2022-12-16T07:33:29.523Z,-7.19
2022-12-16T07:36:17.693Z,-7.22
2022-12-16T07:39:03.016Z,-7.38
2022-12-16T07:41:48.033Z,-7.50
2022-12-16T07:44:33.339Z,-7.32
2022-12-16T07:47:21.768Z,-7.10
2022-12-16T07:50:07.014Z,-6.99
2022-12-16T07:52:52.325Z,-7.08
2022-12-16T07:55:40.777Z,-7.11
2022-12-16T07:58:26.143Z,-7.08
2022-12-16T08:01:11.632Z,-7.02
2022-12-16T08:03:57.248Z,-6.96
2022-12-16T08:06:42.610Z,-7.16
2022-12-16T08:09:28.020Z,-7.14
2022-12-16T08:12:13.308Z,-7.12
2022-12-16T08:14:58.762Z,-6.83
2022-12-16T08:17:44.317Z,-6.88
2022-12-16T08:20:29.785Z,-6.79
2022-12-16T08:23:15.216Z,-6.50
2022-12-16T08:26:00.671Z,-6.80
2022-12-16T08:28:46.173Z,-6.78
2022-12-16T08:31:31.799Z,-6.67
2022-12-16T08:34:17.224Z,-6.85
2022-12-16T08:37:02.492Z,-6.79
2022-12-16T08:39:59.161Z,-6.71
2022-12-16T08:43:11.098Z,-6.50
2022-12-16T08:45:58.932Z,-6.26
2022-12-16T08:48:44.372Z,-6.44
2022-12-16T08:51:29.738Z,-6.18
2022-12-16T08:54:15.167Z,-6.32
2022-12-16T08:57:00.985Z,-6.11
2022-12-16T08:59:46.251Z,-6.11
2022-12-16T09:02:32.911Z,-6.02
2022-12-16T09:05:18.435Z,-5.98
2022-12-16T09:08:03.833Z,-5.83
2022-12-16T09:10:49.425Z,-5.85
2022-12-16T09:13:35.829Z,-5.63
2022-12-16T09:16:21.827Z,-5.30
2022-12-16T09:19:07.143Z,-5.09
2022-12-16T09:22:06.584Z,-4.94
2022-12-16T09:24:51.754Z,-4.81
2022-12-16T09:27:38.149Z,-4.58
2022-12-16T09:30:24.936Z,-4.56
2022-12-16T09:33:10.469Z,-4.56
2022-12-16T09:35:55.617Z,-4.27
2022-12-16T09:38:41.022Z,-4.03
2022-12-16T09:41:44.792Z,-4.21
2022-12-16T09:44:47.347Z,-3.88
2022-12-16T09:47:42.135Z,-3.69
2022-12-16T09:50:40.865Z,-3.68
2022-12-16T09:53:30.625Z,-3.55
2022-12-16T09:56:36.304Z,-3.38
2022-12-16T09:59:25.240Z,-3.15
2022-12-16T10:02:11.231Z,-3.01
2022-12-16T10:05:16.271Z,-2.92
2022-12-16T10:08:11.973Z,-2.74
2022-12-16T10:11:08.766Z,-2.56
2022-12-16T10:14:24.156Z,-2.53
2022-12-16T10:17:15.662Z,-2.25
2022-12-16T10:20:11.498Z,-2.10
2022-12-16T10:23:05.993Z,-2.04
2022-12-16T10:25:58.508Z,-2.05
2022-12-16T10:28:56.918Z,-1.81
2022-12-16T10:31:43.973Z,-1.77
2022-12-16T10:34:33.575Z,-1.95
2022-12-16T10:37:21.300Z,-1.86
2022-12-16T10:40:10.153Z,-1.94
2022-12-16T10:43:04.060Z,-1.88
2022-12-16T10:45:56.990Z,-1.97
2022-12-16T10:48:51.399Z,-1.84
2022-12-16T10:51:43.793Z,-1.76
2022-12-16T10:54:47.063Z,-1.78
2022-12-16T10:57:49.464Z,-1.96
2022-12-16T11:00:40.928Z,-1.86
2022-12-16T11:03:41.319Z,-1.79
2022-12-16T11:06:27.137Z,-1.49
2022-12-16T11:09:12.439Z,-1.64
2022-12-16T11:11:57.834Z,-2.07
2022-12-16T11:15:12.707Z,-2.14
2022-12-16T11:17:56.297Z,-1.72
2022-12-16T11:20:45.055Z,-1.68
2022-12-16T11:23:33.768Z,-1.57
2022-12-16T11:26:34.468Z,-1.28
2022-12-16T11:29:35.631Z,-1.39
2022-12-16T11:32:43.753Z,-1.47
2022-12-16T11:35:32.068Z,-1.53
2022-12-16T11:38:19.601Z,-1.60
2022-12-16T11:41:05.914Z,-1.60
2022-12-16T11:43:51.752Z,-1.63
2022-12-16T11:46:44.286Z,-1.43
2022-12-16T11:49:37.378Z,-1.40
2022-12-16T11:52:40.213Z,-1.48
2022-12-16T11:56:04.892Z,-1.51
2022-12-16T11:58:59.775Z,-1.22
2022-12-16T12:02:14.901Z,-1.30
2022-12-16T12:05:00.301Z,-1.56
2022-12-16T12:07:55.697Z,-1.33
2022-12-16T12:11:02.829Z,-1.27
2022-12-16T12:13:56.699Z,-1.41
2022-12-16T12:17:03.911Z,-1.28
2022-12-16T12:20:08.088Z,-1.27
2022-12-16T12:22:58.134Z,-1.23
2022-12-16T12:25:52.034Z,-1.27
2022-12-16T12:29:15.464Z,-1.15
2022-12-16T12:32:12.388Z,-1.18
2022-12-16T12:35:08.325Z,-1.05
2022-12-16T12:38:12.985Z,-1.25
2022-12-16T12:41:13.599Z,-1.26
2022-12-16T12:44:03.876Z,-1.21
2022-12-16T12:47:04.689Z,-1.13
2022-12-16T12:50:27.541Z,-1.01
2022-12-16T12:53:49.623Z,-1.16
2022-12-16T12:57:00.006Z,-1.20
2022-12-16T12:59:50.978Z,-1.24
2022-12-16T13:02:40.486Z,-0.89
2022-12-16T13:05:31.055Z,-1.40
2022-12-16T13:08:54.920Z,-1.24
2022-12-16T13:11:42.780Z,-1.12
2022-12-16T13:14:50.104Z,-0.93
2022-12-16T13:17:38.023Z,-0.89
2022-12-16T13:20:45.085Z,-1.08
2022-12-16T13:23:59.026Z,-1.03
2022-12-16T13:26:46.216Z,-0.98
2022-12-16T13:29:41.738Z,-1.07
2022-12-16T13:32:47.275Z,-1.25
2022-12-16T13:35:32.703Z,-0.95
2022-12-16T13:38:19.127Z,-0.84
2022-12-16T13:41:21.230Z,-0.84
2022-12-16T13:44:13.143Z,-1.08
2022-12-16T13:46:58.402Z,-0.86
2022-12-16T13:50:00.001Z,-0.89
2022-12-16T13:52:54.060Z,-0.93
2022-12-16T13:56:05.699Z,-0.92
2022-12-16T13:58:57.350Z,-0.97
2022-12-16T14:02:44.440Z,-0.86
2022-12-16T14:05:37.012Z,-1.04
2022-12-16T14:08:23.987Z,-1.02
2022-12-16T14:11:16.940Z,-1.06
2022-12-16T14:14:19.863Z,-1.21
2022-12-16T14:17:19.285Z,-0.94
2022-12-16T14:20:32.475Z,-1.18
2022-12-16T14:23:55.232Z,-0.96
2022-12-16T14:26:36.231Z,-0.94
2022-12-16T14:29:23.047Z,-0.66
2022-12-16T14:32:08.294Z,-0.90
2022-12-16T14:34:55.893Z,-1.14
2022-12-16T14:37:56.572Z,-0.98
2022-12-16T14:40:46.335Z,-1.03
2022-12-16T14:43:42.819Z,-1.02
2022-12-16T14:46:46.773Z,-1.15
2022-12-16T14:49:48.782Z,-0.88
2022-12-16T14:52:41.526Z,-1.14
2022-12-16T14:55:35.461Z,-0.93
2022-12-16T14:58:42.107Z,-0.96
2022-12-16T15:01:35.204Z,-1.22
2022-12-16T15:04:23.788Z,-1.11
2022-12-16T15:07:12.072Z,-1.02
2022-12-16T15:10:07.519Z,-1.13
2022-12-16T15:13:00.476Z,-1.16
2022-12-16T15:15:52.912Z,-0.82
2022-12-16T15:18:42.650Z,-1.17
2022-12-16T15:21:27.996Z,-1.09
2022-12-16T15:24:13.467Z,-1.13
2022-12-16T15:26:58.735Z,-0.89
2022-12-16T15:29:51.852Z,-0.95
2022-12-16T15:32:46.533Z,-0.97
2022-12-16T15:35:45.343Z,-0.87
2022-12-16T15:38:51.823Z,-0.89
2022-12-16T15:41:46.115Z,-0.84
2022-12-16T15:44:35.373Z,-0.82
2022-12-16T15:47:20.746Z,-0.52
2022-12-16T15:50:07.242Z,-0.94
2022-12-16T15:52:57.710Z,-1.01
2022-12-16T15:55:46.928Z,-0.90
2022-12-16T15:58:39.894Z,-0.81
2022-12-16T16:01:26.213Z,-1.01
2022-12-16T16:04:13.746Z,-0.78
2022-12-16T16:07:17.243Z,-1.06
2022-12-16T16:10:16.170Z,-0.89
2022-12-16T16:13:01.620Z,-0.88
2022-12-16T16:15:47.091Z,-1.15
2022-12-16T16:18:32.681Z,-1.03
2022-12-16T16:21:17.875Z,-0.91
2022-12-16T16:24:03.200Z,-1.08
2022-12-16T16:26:48.431Z,-0.91
2022-12-16T16:29:33.921Z,-1.10
2022-12-16T16:32:20.328Z,-1.27
2022-12-16T16:35:05.489Z,-1.22
2022-12-16T16:37:54.035Z,-1.22
2022-12-16T16:40:54.626Z,-1.09
2022-12-16T16:43:40.076Z,-1.13
2022-12-16T16:46:50.707Z,-1.11
2022-12-16T16:49:40.885Z,-0.90
2022-12-16T16:52:33.150Z,-0.99
2022-12-16T16:55:18.411Z,-0.92
2022-12-16T16:58:03.907Z,-0.56
2022-12-16T17:00:49.195Z,-0.76
2022-12-16T17:03:35.115Z,-0.94
2022-12-16T17:06:20.849Z,-0.84
2022-12-16T17:09:06.179Z,-0.66
2022-12-16T17:11:52.306Z,-0.84
2022-12-16T17:14:39.972Z,-1.11
2022-12-16T17:17:25.763Z,-1.22
2022-12-16T17:20:11.089Z,-1.21
2022-12-16T17:22:56.540Z,-1.12
2022-12-16T17:25:42.465Z,-1.26
2022-12-16T17:28:28.267Z,-1.22
2022-12-16T17:31:13.550Z,-1.03
2022-12-16T17:33:58.866Z,-1.12
2022-12-16T17:36:44.327Z,-1.28
2022-12-16T17:39:29.742Z,-1.26
2022-12-16T17:42:14.904Z,-1.19
2022-12-16T17:45:00.236Z,-1.02
2022-12-16T17:47:45.581Z,-1.17
2022-12-16T17:50:30.968Z,-0.89
2022-12-16T17:53:19.671Z,-0.97
2022-12-16T17:56:04.950Z,-0.83
2022-12-16T17:58:55.845Z,-0.58
2022-12-16T18:01:41.721Z,-0.68
2022-12-16T18:04:27.377Z,-0.99
2022-12-16T18:07:15.470Z,-1.06
2022-12-16T18:10:00.712Z,-0.72
2022-12-16T18:12:45.858Z,-0.66
2022-12-16T18:15:32.699Z,-0.76
2022-12-16T18:18:18.213Z,-1.16
2022-12-16T18:21:03.377Z,-1.24
2022-12-16T18:23:49.239Z,-1.24
2022-12-16T18:26:36.055Z,-1.17
2022-12-16T18:29:21.884Z,-1.09
2022-12-16T18:32:07.725Z,-1.20
2022-12-16T18:34:53.028Z,-1.17
2022-12-16T18:37:38.172Z,-1.27
2022-12-16T18:40:24.069Z,-1.05
2022-12-16T18:43:09.424Z,-0.99
2022-12-16T18:45:54.884Z,-0.78
2022-12-16T18:48:40.169Z,-0.94
2022-12-16T18:51:26.634Z,-1.03
2022-12-16T18:54:11.906Z,-0.92
2022-12-16T18:56:57.269Z,-0.68
2022-12-16T18:59:44.378Z,-1.02
2022-12-16T19:02:29.783Z,-1.01
2022-12-16T19:05:15.274Z,-1.15
2022-12-16T19:08:00.728Z,-1.01
2022-12-16T19:10:45.993Z,-0.97
2022-12-16T19:13:32.422Z,-0.94
2022-12-16T19:16:17.689Z,-1.03
2022-12-16T19:19:03.185Z,-1.19
2022-12-16T19:21:52.407Z,-0.86
2022-12-16T19:24:43.318Z,-0.92
2022-12-16T19:27:28.590Z,-1.11
2022-12-16T19:30:15.249Z,-0.85
2022-12-16T19:33:07.091Z,-1.02
2022-12-16T19:35:52.509Z,-1.23
2022-12-16T19:38:38.954Z,-1.33
2022-12-16T19:41:33.547Z,-1.33
2022-12-16T19:44:19.727Z,-1.30
2022-12-16T19:47:07.059Z,-1.37
2022-12-16T19:49:52.320Z,-1.26
2022-12-16T19:52:40.090Z,-0.77
2022-12-16T19:55:25.995Z,-1.13
2022-12-16T19:58:11.984Z,-1.27
2022-12-16T20:00:57.578Z,-1.02
2022-12-16T20:03:43.090Z,-0.84
2022-12-16T20:06:28.757Z,-0.61
2022-12-16T20:09:15.041Z,-0.46
2022-12-16T20:12:01.357Z,-0.57
2022-12-16T20:14:47.494Z,-0.41
2022-12-16T20:17:33.311Z,-0.42
2022-12-16T20:20:18.459Z,-0.61
2022-12-16T20:23:03.805Z,-0.38
2022-12-16T20:25:50.410Z,-0.58
2022-12-16T20:28:38.639Z,-0.83
2022-12-16T20:31:24.112Z,-0.73
2022-12-16T20:34:16.399Z,-0.44
2022-12-16T20:37:01.783Z,-0.56
2022-12-16T20:39:56.440Z,-0.74
2022-12-16T20:42:42.658Z,-0.62
2022-12-16T20:45:28.105Z,-0.62
2022-12-16T20:48:13.428Z,-0.82
2022-12-16T20:50:58.882Z,-0.94
2022-12-16T20:53:44.244Z,-0.86
2022-12-16T20:56:29.851Z,-0.85
2022-12-16T20:59:29.800Z,-0.52
2022-12-16T21:02:23.242Z,-0.52
2022-12-16T21:05:09.143Z,-0.78
2022-12-16T21:07:54.717Z,-0.73
2022-12-16T21:10:42.203Z,-0.79
2022-12-16T21:13:32.347Z,-0.86
2022-12-16T21:16:21.743Z,-0.98
2022-12-16T21:19:07.471Z,-1.20
2022-12-16T21:21:53.539Z,-1.07
2022-12-16T21:24:38.713Z,-1.10
2022-12-16T21:27:24.125Z,-1.03
2022-12-16T21:30:09.942Z,-1.14
2022-12-16T21:32:55.320Z,-1.00
2022-12-16T21:35:42.408Z,-1.09
2022-12-16T21:38:29.034Z,-1.03
2022-12-16T21:41:14.413Z,-1.04
2022-12-16T21:43:59.953Z,-1.08
2022-12-16T21:46:45.479Z,-1.06
2022-12-16T21:49:31.020Z,-0.96
2022-12-16T21:52:16.153Z,-0.86
2022-12-16T21:55:01.515Z,-1.07
2022-12-16T21:57:46.881Z,-1.06
2022-12-16T22:00:32.630Z,-1.17
2022-12-16T22:03:18.103Z,-1.13
2022-12-16T22:06:03.674Z,-1.06
2022-12-16T22:08:48.861Z,-0.91
2022-12-16T22:11:35.355Z,-0.94
2022-12-16T22:14:21.070Z,-1.15
2022-12-16T22:17:06.532Z,-1.18
2022-12-16T22:22:59.982Z,-1.14
2022-12-16T22:25:48.397Z,-0.91
2022-12-16T22:28:35.411Z,-0.67
2022-12-16T22:31:40.533Z,-0.73
2022-12-16T22:34:25.733Z,-0.84
2022-12-16T22:36:22.085Z,-1.17
2022-12-16T22:37:11.215Z,-0.73
2022-12-16T22:43:05.725Z,-0.84
2022-12-16T22:45:50.834Z,-0.67
2022-12-16T22:48:37.315Z,-0.72
2022-12-16T22:51:22.515Z,-0.98
2022-12-16T22:54:09.517Z,-1.07
2022-12-16T22:56:56.414Z,-1.05
2022-12-16T22:59:41.896Z,-0.86
2022-12-16T23:02:28.236Z,-1.02
2022-12-16T23:05:13.992Z,-0.89
2022-12-16T23:07:59.374Z,-0.99
2022-12-16T23:10:44.712Z,-1.03
2022-12-16T23:13:31.010Z,-1.07
2022-12-16T23:16:16.520Z,-1.10
2022-12-16T23:19:21.749Z,-1.09
2022-12-16T23:22:07.168Z,-1.00
2022-12-16T23:24:55.100Z,-0.63
2022-12-16T23:27:42.392Z,-0.61
2022-12-16T23:30:28.136Z,-0.78
2022-12-16T23:33:17.926Z,-0.95
2022-12-16T23:36:03.140Z,-0.95
2022-12-16T23:38:48.935Z,-0.91
2022-12-16T23:41:34.197Z,-0.93
2022-12-16T23:44:19.681Z,-0.86
2022-12-16T23:47:04.816Z,-0.74
2022-12-16T23:49:50.293Z,-0.72
2022-12-16T23:52:35.531Z,-0.69
2022-12-16T23:55:20.948Z,-0.91
2022-12-16T23:58:06.286Z,-0.86
